Villanueva del Trabuco, Spain
Current Conditions -  °F | °C
As of 12:30 AM on Wednesday 26 Nov 2014 (Local Time) from LEMG Reporting Station
Scattered Clouds Scattered Clouds  
Wind Chill: 63°   Ceiling: Unl
Heat Index: 63°   Visibility: 6mi
Dew Point: 52°   Wind: 8mph
Humidity: 68%   Direction: 270°W
Pressure: 30.03"   Gusts: NA
Location:  37.03°N, 4.34°W
Report Text: LEMG 252330Z 27007KT 9999 SCT045 SCT080 17/11 Q1017 NOSIG
Loading
Personal Weather Stations






























Interactive Weather Map New forecast layout! Learn more

10-Day Weather Forecast

Advertisements
Track Severe Weather on mobile